Time,TemperatureF,DewpointF,PressureIn,WindDirection,WindDirectionDegrees,WindSpeedMPH,WindSpeedGustMPH,Humidity,HourlyPrecipIn,Conditions,Clouds,dailyrainin,SoftwareType,DateUTC
2013-07-12 00:01:00,56.0,39.0,-100.00,SE,136,1.0,2.0,53,0.00,,,0.00,,2013-07-12 06:01:00,
2013-07-12 00:11:00,56.0,39.0,-100.00,SE,136,1.0,2.0,53,0.00,,,0.00,,2013-07-12 06:11:00,
2013-07-12 00:22:00,56.0,39.0,-100.00,SSE,157,3.0,7.0,51,0.00,,,0.00,,2013-07-12 06:22:00,
2013-07-12 00:32:00,56.0,39.0,-100.00,SSE,157,3.0,7.0,51,0.00,,,0.00,,2013-07-12 06:32:00,
2013-07-12 00:52:00,54.0,39.0,-100.00,SE,136,3.0,4.0,57,0.00,,,0.00,,2013-07-12 06:52:00,
2013-07-12 01:02:00,53.0,39.0,-100.00,SE,131,4.0,5.0,58,0.00,,,0.00,,2013-07-12 07:02:00,
2013-07-12 01:12:00,52.0,39.0,-100.00,SSE,157,2.0,3.0,62,0.00,,,0.00,,2013-07-12 07:12:00,
2013-07-12 01:22:00,52.0,39.0,-100.00,SSE,157,2.0,3.0,62,0.00,,,0.00,,2013-07-12 07:22:00,
2013-07-12 01:32:00,52.0,39.0,-100.00,SSE,157,2.0,3.0,62,0.00,,,0.00,,2013-07-12 07:32:00,
2013-07-12 01:52:00,52.0,41.0,-100.00,SE,143,2.0,3.0,66,0.00,,,0.00,,2013-07-12 07:52:00,
2013-07-12 02:01:00,53.0,41.0,-100.00,SE,137,2.0,3.0,65,0.00,,,0.00,,2013-07-12 08:01:00,
2013-07-12 02:11:00,51.0,40.0,-100.00,SSE,165,2.0,3.0,66,0.00,,,0.00,,2013-07-12 08:11:00,
2013-07-12 02:21:00,51.0,40.0,-100.00,SSE,165,2.0,3.0,66,0.00,,,0.00,,2013-07-12 08:21:00,
2013-07-12 02:32:00,51.0,40.0,-100.00,SSE,165,2.0,3.0,66,0.00,,,0.00,,2013-07-12 08:32:00,
2013-07-12 02:42:00,49.0,41.0,-100.00,SSE,152,2.0,2.0,72,0.00,,,0.00,,2013-07-12 08:42:00,
2013-07-12 02:53:00,49.0,41.0,-100.00,SSE,152,2.0,2.0,72,0.00,,,0.00,,2013-07-12 08:53:00,
2013-07-12 03:02:00,49.0,41.0,-100.00,SSE,157,2.0,2.0,73,0.00,,,0.00,,2013-07-12 09:02:00,
2013-07-12 03:12:00,49.0,41.0,-100.00,SSE,151,2.0,4.0,72,0.00,,,0.00,,2013-07-12 09:12:00,
2013-07-12 03:32:00,50.0,41.0,-100.00,SSE,148,3.0,4.0,70,0.00,,,0.00,,2013-07-12 09:32:00,
2013-07-12 03:42:00,51.0,41.0,-100.00,SE,137,3.0,4.0,69,0.00,,,0.00,,2013-07-12 09:42:00,
2013-07-12 03:52:00,51.0,41.0,-100.00,SE,137,3.0,4.0,69,0.00,,,0.00,,2013-07-12 09:52:00,
2013-07-12 04:01:00,50.0,41.0,-100.00,SE,141,3.0,4.0,70,0.00,,,0.00,,2013-07-12 10:01:00,
2013-07-12 04:11:00,50.0,41.0,-100.00,SE,141,3.0,4.0,70,0.00,,,0.00,,2013-07-12 10:11:00,
2013-07-12 04:33:00,50.0,41.0,-100.00,SE,137,4.0,4.0,71,0.00,,,0.00,,2013-07-12 10:33:00,
2013-07-12 04:42:00,49.0,41.0,-100.00,SSE,150,2.0,3.0,74,0.00,,,0.00,,2013-07-12 10:42:00,
2013-07-12 04:52:00,49.0,41.0,-100.00,SSE,150,2.0,3.0,74,0.00,,,0.00,,2013-07-12 10:52:00,
2013-07-12 05:02:00,48.0,42.0,-100.00,SE,137,2.0,3.0,79,0.00,,,0.00,,2013-07-12 11:02:00,
2013-07-12 05:11:00,47.0,41.0,-100.00,SE,141,2.0,3.0,79,0.00,,,0.00,,2013-07-12 11:11:00,
2013-07-12 05:32:00,48.0,41.0,-100.00,SSE,151,2.0,3.0,78,0.00,,,0.00,,2013-07-12 11:32:00,
2013-07-12 05:43:00,48.0,41.0,-100.00,SSE,151,2.0,3.0,78,0.00,,,0.00,,2013-07-12 11:43:00,
2013-07-12 05:53:00,48.0,41.0,-100.00,SSE,151,2.0,3.0,78,0.00,,,0.00,,2013-07-12 11:53:00,
2013-07-12 06:01:00,49.0,41.0,-100.00,SE,143,3.0,4.0,75,0.00,,,0.00,,2013-07-12 12:01:00,
2013-07-12 06:11:00,50.0,42.0,-100.00,SE,138,4.0,5.0,73,0.00,,,0.00,,2013-07-12 12:11:00,
2013-07-12 06:22:00,50.0,42.0,-100.00,SE,138,4.0,5.0,73,0.00,,,0.00,,2013-07-12 12:22:00,
2013-07-12 06:32:00,50.0,42.0,-100.00,SE,141,4.0,4.0,73,0.00,,,0.00,,2013-07-12 12:32:00,
2013-07-12 06:43:00,50.0,42.0,-100.00,SE,131,3.0,4.0,72,0.00,,,0.00,,2013-07-12 12:43:00,
2013-07-12 06:52:00,50.0,42.0,-100.00,SE,131,3.0,4.0,72,0.00,,,0.00,,2013-07-12 12:52:00,
2013-07-12 07:01:00,50.0,42.0,-100.00,SE,131,3.0,4.0,72,0.00,,,0.00,,2013-07-12 13:01:00,
2013-07-12 07:11:00,49.0,42.0,-100.00,SE,131,3.0,3.0,75,0.00,,,0.00,,2013-07-12 13:11:00,
2013-07-12 07:22:00,49.0,42.0,-100.00,SE,131,3.0,3.0,75,0.00,,,0.00,,2013-07-12 13:22:00,
2013-07-12 07:32:00,49.0,42.0,-100.00,SE,131,3.0,3.0,75,0.00,,,0.00,,2013-07-12 13:32:00,
2013-07-12 07:43:00,51.0,42.0,-100.00,SE,134,4.0,6.0,73,0.00,,,0.00,,2013-07-12 13:43:00,
2013-07-12 07:53:00,51.0,42.0,-100.00,SE,134,4.0,6.0,73,0.00,,,0.00,,2013-07-12 13:53:00,
2013-07-12 08:02:00,51.0,42.0,-100.00,SE,134,4.0,6.0,73,0.00,,,0.00,,2013-07-12 14:02:00,
2013-07-12 08:22:00,53.0,42.0,-100.00,SE,124,6.0,7.0,66,0.00,,,0.00,,2013-07-12 14:22:00,
2013-07-12 08:32:00,53.0,42.0,-100.00,SE,124,6.0,7.0,66,0.00,,,0.00,,2013-07-12 14:32:00,
2013-07-12 08:43:00,53.0,42.0,-100.00,SE,124,6.0,7.0,66,0.00,,,0.00,,2013-07-12 14:43:00,
2013-07-12 09:01:00,55.0,44.0,-100.00,SE,136,7.0,9.0,64,0.00,,,0.00,,2013-07-12 15:01:00,
2013-07-12 09:11:00,58.0,44.0,-100.00,SE,143,7.0,11.0,59,0.00,,,0.00,,2013-07-12 15:11:00,
2013-07-12 09:22:00,58.0,44.0,-100.00,SE,143,7.0,11.0,59,0.00,,,0.00,,2013-07-12 15:22:00,
2013-07-12 09:33:00,58.0,44.0,-100.00,SE,143,7.0,11.0,59,0.00,,,0.00,,2013-07-12 15:33:00,
2013-07-12 09:53:00,60.0,42.0,-100.00,SE,145,8.0,11.0,52,0.00,,,0.00,,2013-07-12 15:53:00,
2013-07-12 10:01:00,61.0,43.0,-100.00,SSE,150,8.0,11.0,53,0.00,,,0.00,,2013-07-12 16:01:00,
2013-07-12 10:32:00,62.0,43.0,-100.00,SSE,158,6.0,10.0,49,0.00,,,0.00,,2013-07-12 16:32:00,
2013-07-12 10:43:00,63.0,44.0,-100.00,SSE,148,7.0,11.0,49,0.00,,,0.00,,2013-07-12 16:43:00,
2013-07-12 10:58:00,63.0,44.0,-100.00,SSE,148,7.0,11.0,49,0.00,,,0.00,,2013-07-12 16:58:00,
2013-07-12 11:12:00,63.0,43.0,-100.00,SSE,150,6.0,10.0,47,0.00,,,0.00,,2013-07-12 17:12:00,
2013-07-12 11:23:00,66.0,43.0,-100.00,SSE,165,7.0,11.0,44,0.00,,,0.00,,2013-07-12 17:23:00,
2013-07-12 11:34:00,66.0,43.0,-100.00,SSE,165,7.0,11.0,44,0.00,,,0.00,,2013-07-12 17:34:00,
2013-07-12 11:44:00,65.0,44.0,-100.00,SE,138,9.0,12.0,45,0.00,,,0.00,,2013-07-12 17:44:00,
2013-07-12 11:55:00,65.0,44.0,-100.00,SE,138,9.0,12.0,45,0.00,,,0.00,,2013-07-12 17:55:00,
2013-07-12 12:12:00,68.0,43.0,-100.00,SSE,155,6.0,8.0,41,0.00,,,0.00,,2013-07-12 18:12:00,
2013-07-12 12:23:00,68.0,43.0,-100.00,SSE,155,6.0,8.0,41,0.00,,,0.00,,2013-07-12 18:23:00,
2013-07-12 12:33:00,68.0,43.0,-100.00,SSE,155,6.0,8.0,41,0.00,,,0.00,,2013-07-12 18:33:00,
2013-07-12 12:44:00,68.0,41.0,-100.00,South,174,7.0,12.0,37,0.00,,,0.00,,2013-07-12 18:44:00,
2013-07-12 13:03:00,68.0,41.0,-100.00,South,174,7.0,12.0,37,0.00,,,0.00,,2013-07-12 19:03:00,
2013-07-12 13:12:00,68.0,41.0,-100.00,South,174,7.0,12.0,37,0.00,,,0.00,,2013-07-12 19:12:00,
2013-07-12 13:22:00,70.0,39.0,-100.00,SE,136,9.0,13.0,33,0.00,,,0.00,,2013-07-12 19:22:00,
2013-07-12 13:32:00,70.0,39.0,-100.00,SE,136,9.0,13.0,33,0.00,,,0.00,,2013-07-12 19:32:00,
2013-07-12 13:44:00,67.0,39.0,-100.00,South,184,5.0,8.0,35,0.00,,,0.00,,2013-07-12 19:44:00,
2013-07-12 13:58:00,67.0,39.0,-100.00,South,184,5.0,8.0,35,0.00,,,0.00,,2013-07-12 19:58:00,
2013-07-12 14:00:00,65.0,44.0,-100.00,West,270,5.0,9.0,46,0.00,,,0.01,,2013-07-12 20:00:00,
2013-07-12 14:33:00,65.0,44.0,-100.00,West,270,5.0,9.0,46,0.00,,,0.01,,2013-07-12 20:33:00,
2013-07-12 14:43:00,65.0,44.0,-100.00,West,270,5.0,9.0,46,0.00,,,0.01,,2013-07-12 20:43:00,
2013-07-12 16:02:00,70.0,39.0,-100.00,SW,227,5.0,9.0,32,0.00,,,0.01,,2013-07-12 22:02:00,
2013-07-12 16:14:00,70.0,39.0,-100.00,SW,227,5.0,9.0,32,0.00,,,0.01,,2013-07-12 22:14:00,
2013-07-12 16:22:00,69.0,39.0,-100.00,South,189,8.0,17.0,33,0.00,,,0.01,,2013-07-12 22:22:00,
2013-07-12 16:33:00,69.0,39.0,-100.00,South,189,8.0,17.0,33,0.00,,,0.01,,2013-07-12 22:33:00,
2013-07-12 16:43:00,73.0,41.0,-100.00,SSW,212,4.0,7.0,32,0.00,,,0.01,,2013-07-12 22:43:00,
2013-07-12 17:02:00,73.0,39.0,-100.00,SSW,199,6.0,11.0,29,0.00,,,0.01,,2013-07-12 23:02:00,
2013-07-12 17:12:00,73.0,39.0,-100.00,SSW,199,6.0,11.0,29,0.00,,,0.01,,2013-07-12 23:12:00,
2013-07-12 17:22:00,73.0,37.0,-100.00,SSE,168,4.0,11.0,27,0.00,,,0.01,,2013-07-12 23:22:00,
2013-07-12 17:33:00,73.0,37.0,-100.00,SSE,168,4.0,11.0,27,0.00,,,0.01,,2013-07-12 23:33:00,
2013-07-12 17:57:00,74.0,37.0,-100.00,SSW,203,3.0,7.0,26,0.00,,,0.01,,2013-07-12 23:57:00,
2013-07-12 18:03:00,74.0,37.0,-100.00,SSW,203,3.0,7.0,26,0.00,,,0.01,,2013-07-13 00:03:00,
2013-07-12 23:42:00,55.0,44.0,-100.00,NW,323,3.0,3.0,66,0.00,,,0.01,,2013-07-13 05:42:00,